sensor_id;sensor_type;location;lat;lon;timestamp;temperature;humidity
8152;DHT22;4117;53.622;9.958;2023-04-25T00:02:14;7.70;13.00
8152;DHT22;4117;53.622;9.958;2023-04-25T00:04:43;7.70;15.30
8152;DHT22;4117;53.622;9.958;2023-04-25T00:07:10;7.70;15.30
8152;DHT22;4117;53.622;9.958;2023-04-25T00:09:37;7.60;15.20
8152;DHT22;4117;53.622;9.958;2023-04-25T00:12:04;7.60;15.30
8152;DHT22;4117;53.622;9.958;2023-04-25T00:14:31;7.50;15.20
8152;DHT22;4117;53.622;9.958;2023-04-25T00:16:59;7.60;15.80
8152;DHT22;4117;53.622;9.958;2023-04-25T00:19:26;7.50;15.20
8152;DHT22;4117;53.622;9.958;2023-04-25T00:21:55;7.50;15.40
8152;DHT22;4117;53.622;9.958;2023-04-25T00:24:23;7.50;16.60
8152;DHT22;4117;53.622;9.958;2023-04-25T00:26:49;7.60;15.20
8152;DHT22;4117;53.622;9.958;2023-04-25T00:29:16;7.60;15.20
8152;DHT22;4117;53.622;9.958;2023-04-25T00:31:43;7.50;15.10
8152;DHT22;4117;53.622;9.958;2023-04-25T00:34:10;7.50;14.60
8152;DHT22;4117;53.622;9.958;2023-04-25T00:36:37;7.40;6.90
8152;DHT22;4117;53.622;9.958;2023-04-25T00:39:06;7.40;7.30
8152;DHT22;4117;53.622;9.958;2023-04-25T00:41:33;7.30;4.50
8152;DHT22;4117;53.622;9.958;2023-04-25T00:44:01;7.30;4.20
8152;DHT22;4117;53.622;9.958;2023-04-25T00:46:29;7.30;4.30
8152;DHT22;4117;53.622;9.958;2023-04-25T00:48:56;7.30;4.30
8152;DHT22;4117;53.622;9.958;2023-04-25T00:51:23;7.20;4.20
8152;DHT22;4117;53.622;9.958;2023-04-25T00:53:52;7.20;2.10
8152;DHT22;4117;53.622;9.958;2023-04-25T00:56:21;7.20;1.00
8152;DHT22;4117;53.622;9.958;2023-04-25T00:58:48;7.10;1.00
8152;DHT22;4117;53.622;9.958;2023-04-25T01:01:16;7.20;1.00
8152;DHT22;4117;53.622;9.958;2023-04-25T01:03:43;7.10;1.00
8152;DHT22;4117;53.622;9.958;2023-04-25T01:06:12;7.20;1.00
8152;DHT22;4117;53.622;9.958;2023-04-25T01:08:39;7.10;1.00
8152;DHT22;4117;53.622;9.958;2023-04-25T01:11:06;7.20;1.00
8152;DHT22;4117;53.622;9.958;2023-04-25T01:13:35;7.20;1.00
8152;DHT22;4117;53.622;9.958;2023-04-25T01:16:02;7.10;1.00
8152;DHT22;4117;53.622;9.958;2023-04-25T01:18:29;7.00;1.00
8152;DHT22;4117;53.622;9.958;2023-04-25T01:21:02;7.00;1.00
8152;DHT22;4117;53.622;9.958;2023-04-25T01:23:31;7.00;1.00
8152;DHT22;4117;53.622;9.958;2023-04-25T01:25:59;6.90;1.00
8152;DHT22;4117;53.622;9.958;2023-04-25T01:28:26;6.90;1.00
8152;DHT22;4117;53.622;9.958;2023-04-25T01:30:54;6.80;1.00
8152;DHT22;4117;53.622;9.958;2023-04-25T01:33:21;6.90;1.00
8152;DHT22;4117;53.622;9.958;2023-04-25T01:35:48;6.90;1.00
8152;DHT22;4117;53.622;9.958;2023-04-25T01:38:17;6.80;1.00
8152;DHT22;4117;53.622;9.958;2023-04-25T01:40:45;6.80;1.00
8152;DHT22;4117;53.622;9.958;2023-04-25T01:43:12;6.70;1.00
8152;DHT22;4117;53.622;9.958;2023-04-25T01:45:40;6.70;1.00
8152;DHT22;4117;53.622;9.958;2023-04-25T01:48:07;6.80;1.00
8152;DHT22;4117;53.622;9.958;2023-04-25T01:50:34;6.80;1.00
8152;DHT22;4117;53.622;9.958;2023-04-25T01:53:01;6.70;1.00
8152;DHT22;4117;53.622;9.958;2023-04-25T01:55:29;6.70;1.00
8152;DHT22;4117;53.622;9.958;2023-04-25T01:57:56;6.60;1.00
8152;DHT22;4117;53.622;9.958;2023-04-25T02:00:24;6.60;1.00
8152;DHT22;4117;53.622;9.958;2023-04-25T02:02:51;6.50;1.00
8152;DHT22;4117;53.622;9.958;2023-04-25T02:05:19;6.50;1.00
8152;DHT22;4117;53.622;9.958;2023-04-25T02:07:46;6.50;1.00
8152;DHT22;4117;53.622;9.958;2023-04-25T02:10:13;6.40;1.00
8152;DHT22;4117;53.622;9.958;2023-04-25T02:12:42;6.40;1.00
8152;DHT22;4117;53.622;9.958;2023-04-25T02:15:09;6.40;1.00
8152;DHT22;4117;53.622;9.958;2023-04-25T02:17:37;6.40;1.00
8152;DHT22;4117;53.622;9.958;2023-04-25T02:20:05;6.50;1.00
8152;DHT22;4117;53.622;9.958;2023-04-25T02:22:32;6.50;1.00
8152;DHT22;4117;53.622;9.958;2023-04-25T02:25:01;6.50;1.00
8152;DHT22;4117;53.622;9.958;2023-04-25T02:27:30;6.40;1.00
8152;DHT22;4117;53.622;9.958;2023-04-25T02:29:58;6.60;1.00
8152;DHT22;4117;53.622;9.958;2023-04-25T02:32:25;6.50;1.00
8152;DHT22;4117;53.622;9.958;2023-04-25T02:34:52;6.50;1.00
8152;DHT22;4117;53.622;9.958;2023-04-25T02:37:20;6.40;1.00
8152;DHT22;4117;53.622;9.958;2023-04-25T02:39:46;6.40;1.00
8152;DHT22;4117;53.622;9.958;2023-04-25T02:42:13;6.50;1.00
8152;DHT22;4117;53.622;9.958;2023-04-25T02:44:40;6.50;1.00
8152;DHT22;4117;53.622;9.958;2023-04-25T02:47:09;6.50;1.00
8152;DHT22;4117;53.622;9.958;2023-04-25T02:49:36;6.40;1.00
8152;DHT22;4117;53.622;9.958;2023-04-25T02:52:03;6.40;1.00
8152;DHT22;4117;53.622;9.958;2023-04-25T02:54:30;6.30;1.00
8152;DHT22;4117;53.622;9.958;2023-04-25T02:56:57;6.30;1.00
8152;DHT22;4117;53.622;9.958;2023-04-25T02:59:24;6.20;1.00
8152;DHT22;4117;53.622;9.958;2023-04-25T03:01:50;6.20;1.00
8152;DHT22;4117;53.622;9.958;2023-04-25T03:04:19;6.20;1.00
8152;DHT22;4117;53.622;9.958;2023-04-25T03:06:46;6.10;1.00
8152;DHT22;4117;53.622;9.958;2023-04-25T03:09:13;6.10;1.00
8152;DHT22;4117;53.622;9.958;2023-04-25T03:11:40;6.10;1.00
8152;DHT22;4117;53.622;9.958;2023-04-25T03:14:07;6.10;1.00
8152;DHT22;4117;53.622;9.958;2023-04-25T03:16:34;6.00;1.00
8152;DHT22;4117;53.622;9.958;2023-04-25T03:19:01;6.00;1.00
8152;DHT22;4117;53.622;9.958;2023-04-25T03:21:30;5.90;1.00
8152;DHT22;4117;53.622;9.958;2023-04-25T03:23:57;5.90;1.00
8152;DHT22;4117;53.622;9.958;2023-04-25T03:26:24;5.90;1.00
8152;DHT22;4117;53.622;9.958;2023-04-25T03:28:51;6.00;1.00
8152;DHT22;4117;53.622;9.958;2023-04-25T03:31:18;5.90;1.00
8152;DHT22;4117;53.622;9.958;2023-04-25T03:33:45;5.90;1.00
8152;DHT22;4117;53.622;9.958;2023-04-25T03:36:12;5.90;1.00
8152;DHT22;4117;53.622;9.958;2023-04-25T03:38:40;5.80;1.00
8152;DHT22;4117;53.622;9.958;2023-04-25T03:41:07;5.80;1.00
8152;DHT22;4117;53.622;9.958;2023-04-25T03:43:35;5.80;1.00
8152;DHT22;4117;53.622;9.958;2023-04-25T03:46:02;5.80;1.00
8152;DHT22;4117;53.622;9.958;2023-04-25T03:48:29;5.80;1.00
8152;DHT22;4117;53.622;9.958;2023-04-25T03:50:56;5.70;1.00
8152;DHT22;4117;53.622;9.958;2023-04-25T03:53:22;5.70;1.00
8152;DHT22;4117;53.622;9.958;2023-04-25T03:55:51;5.70;1.00
8152;DHT22;4117;53.622;9.958;2023-04-25T03:58:18;5.60;1.00
8152;DHT22;4117;53.622;9.958;2023-04-25T04:00:45;5.60;1.00
8152;DHT22;4117;53.622;9.958;2023-04-25T04:03:13;5.60;1.00
8152;DHT22;4117;53.622;9.958;2023-04-25T04:05:39;5.60;1.00
8152;DHT22;4117;53.622;9.958;2023-04-25T04:08:06;5.50;1.00
8152;DHT22;4117;53.622;9.958;2023-04-25T04:10:33;5.50;1.00
8152;DHT22;4117;53.622;9.958;2023-04-25T04:13:02;5.60;1.00
8152;DHT22;4117;53.622;9.958;2023-04-25T04:15:29;5.50;1.00
8152;DHT22;4117;53.622;9.958;2023-04-25T04:17:58;5.50;1.00
8152;DHT22;4117;53.622;9.958;2023-04-25T04:20:28;5.50;1.00
8152;DHT22;4117;53.622;9.958;2023-04-25T04:22:56;5.60;1.00
8152;DHT22;4117;53.622;9.958;2023-04-25T04:25:22;5.50;1.00
8152;DHT22;4117;53.622;9.958;2023-04-25T04:27:50;5.50;1.00
8152;DHT22;4117;53.622;9.958;2023-04-25T04:30:21;5.40;1.00
8152;DHT22;4117;53.622;9.958;2023-04-25T04:32:50;5.40;1.00
8152;DHT22;4117;53.622;9.958;2023-04-25T04:35:17;5.40;1.00
8152;DHT22;4117;53.622;9.958;2023-04-25T04:37:44;5.40;1.00
8152;DHT22;4117;53.622;9.958;2023-04-25T04:40:12;5.40;1.00
8152;DHT22;4117;53.622;9.958;2023-04-25T04:42:41;5.40;1.00
8152;DHT22;4117;53.622;9.958;2023-04-25T04:45:09;5.40;1.00
8152;DHT22;4117;53.622;9.958;2023-04-25T04:47:38;5.40;1.00
8152;DHT22;4117;53.622;9.958;2023-04-25T04:50:06;5.50;1.00
8152;DHT22;4117;53.622;9.958;2023-04-25T04:52:34;5.40;1.00
8152;DHT22;4117;53.622;9.958;2023-04-25T04:55:01;5.40;1.00
8152;DHT22;4117;53.622;9.958;2023-04-25T04:57:29;5.50;1.00
8152;DHT22;4117;53.622;9.958;2023-04-25T04:59:56;5.50;1.00
8152;DHT22;4117;53.622;9.958;2023-04-25T05:02:23;5.50;1.00
8152;DHT22;4117;53.622;9.958;2023-04-25T05:04:52;5.50;1.00
8152;DHT22;4117;53.622;9.958;2023-04-25T05:07:19;5.50;1.00
8152;DHT22;4117;53.622;9.958;2023-04-25T05:09:47;5.40;1.00
8152;DHT22;4117;53.622;9.958;2023-04-25T05:12:14;5.30;1.00
8152;DHT22;4117;53.622;9.958;2023-04-25T05:14:41;5.30;1.00
8152;DHT22;4117;53.622;9.958;2023-04-25T05:17:08;5.30;1.00
8152;DHT22;4117;53.622;9.958;2023-04-25T05:19:36;5.30;1.00
8152;DHT22;4117;53.622;9.958;2023-04-25T05:22:05;5.30;1.00
8152;DHT22;4117;53.622;9.958;2023-04-25T05:24:31;5.30;1.00
8152;DHT22;4117;53.622;9.958;2023-04-25T05:26:58;5.30;1.00
8152;DHT22;4117;53.622;9.958;2023-04-25T05:29:27;5.30;1.00
8152;DHT22;4117;53.622;9.958;2023-04-25T05:31:54;5.30;1.00
8152;DHT22;4117;53.622;9.958;2023-04-25T05:34:21;5.30;1.00
8152;DHT22;4117;53.622;9.958;2023-04-25T05:36:48;5.40;1.00
8152;DHT22;4117;53.622;9.958;2023-04-25T05:39:17;5.40;1.00
8152;DHT22;4117;53.622;9.958;2023-04-25T05:41:44;5.40;1.00
8152;DHT22;4117;53.622;9.958;2023-04-25T05:44:11;5.40;1.00
8152;DHT22;4117;53.622;9.958;2023-04-25T05:46:38;5.50;1.00
8152;DHT22;4117;53.622;9.958;2023-04-25T05:49:05;5.60;1.00
8152;DHT22;4117;53.622;9.958;2023-04-25T05:51:32;5.50;1.00
8152;DHT22;4117;53.622;9.958;2023-04-25T05:54:00;5.50;1.00
8152;DHT22;4117;53.622;9.958;2023-04-25T05:56:28;5.50;1.00
8152;DHT22;4117;53.622;9.958;2023-04-25T05:58:56;5.60;1.00
8152;DHT22;4117;53.622;9.958;2023-04-25T06:01:23;5.60;1.00
8152;DHT22;4117;53.622;9.958;2023-04-25T06:03:50;5.70;1.00
8152;DHT22;4117;53.622;9.958;2023-04-25T06:06:18;5.70;1.00
8152;DHT22;4117;53.622;9.958;2023-04-25T06:08:45;5.80;1.00
8152;DHT22;4117;53.622;9.958;2023-04-25T06:11:13;5.80;1.00
8152;DHT22;4117;53.622;9.958;2023-04-25T06:13:42;5.80;1.00
8152;DHT22;4117;53.622;9.958;2023-04-25T06:16:09;5.80;1.00
8152;DHT22;4117;53.622;9.958;2023-04-25T06:18:36;5.80;1.00
8152;DHT22;4117;53.622;9.958;2023-04-25T06:21:05;5.90;1.00
8152;DHT22;4117;53.622;9.958;2023-04-25T06:23:32;5.80;1.00
8152;DHT22;4117;53.622;9.958;2023-04-25T06:25:59;5.90;1.00
8152;DHT22;4117;53.622;9.958;2023-04-25T06:28:26;5.90;1.00
8152;DHT22;4117;53.622;9.958;2023-04-25T06:30:54;5.90;1.00
8152;DHT22;4117;53.622;9.958;2023-04-25T06:33:21;5.90;1.00
8152;DHT22;4117;53.622;9.958;2023-04-25T06:35:49;5.90;1.00
8152;DHT22;4117;53.622;9.958;2023-04-25T06:38:17;5.90;1.00
8152;DHT22;4117;53.622;9.958;2023-04-25T06:40:44;6.00;1.00
8152;DHT22;4117;53.622;9.958;2023-04-25T06:43:12;6.00;1.00
8152;DHT22;4117;53.622;9.958;2023-04-25T06:45:39;6.00;1.00
8152;DHT22;4117;53.622;9.958;2023-04-25T06:48:09;6.00;1.00
8152;DHT22;4117;53.622;9.958;2023-04-25T06:50:36;6.00;1.00
8152;DHT22;4117;53.622;9.958;2023-04-25T06:53:03;6.00;1.00
8152;DHT22;4117;53.622;9.958;2023-04-25T06:55:31;6.10;1.00
8152;DHT22;4117;53.622;9.958;2023-04-25T06:57:58;6.10;1.00
8152;DHT22;4117;53.622;9.958;2023-04-25T07:00:26;6.10;1.00
8152;DHT22;4117;53.622;9.958;2023-04-25T07:02:53;6.10;1.00
8152;DHT22;4117;53.622;9.958;2023-04-25T07:05:22;6.10;1.00
8152;DHT22;4117;53.622;9.958;2023-04-25T07:07:51;6.20;1.00
8152;DHT22;4117;53.622;9.958;2023-04-25T07:10:23;6.20;1.00
8152;DHT22;4117;53.622;9.958;2023-04-25T07:12:50;6.20;1.00
8152;DHT22;4117;53.622;9.958;2023-04-25T07:15:19;6.10;1.00
8152;DHT22;4117;53.622;9.958;2023-04-25T07:17:46;6.10;1.00
8152;DHT22;4117;53.622;9.958;2023-04-25T07:20:13;6.10;1.00
8152;DHT22;4117;53.622;9.958;2023-04-25T07:22:43;6.10;1.00
8152;DHT22;4117;53.622;9.958;2023-04-25T07:25:10;5.90;1.00
8152;DHT22;4117;53.622;9.958;2023-04-25T07:27:36;5.90;1.00
8152;DHT22;4117;53.622;9.958;2023-04-25T07:30:05;5.90;1.00
8152;DHT22;4117;53.622;9.958;2023-04-25T07:32:32;5.90;1.00
8152;DHT22;4117;53.622;9.958;2023-04-25T07:34:59;6.00;1.00
8152;DHT22;4117;53.622;9.958;2023-04-25T07:37:27;6.10;1.00
8152;DHT22;4117;53.622;9.958;2023-04-25T07:39:55;6.10;1.00
8152;DHT22;4117;53.622;9.958;2023-04-25T07:42:24;6.10;1.00
8152;DHT22;4117;53.622;9.958;2023-04-25T07:44:53;6.20;1.00
8152;DHT22;4117;53.622;9.958;2023-04-25T07:47:20;6.20;1.00
8152;DHT22;4117;53.622;9.958;2023-04-25T07:49:47;6.20;1.00
8152;DHT22;4117;53.622;9.958;2023-04-25T07:52:15;6.40;1.00
8152;DHT22;4117;53.622;9.958;2023-04-25T07:54:42;6.40;1.00
8152;DHT22;4117;53.622;9.958;2023-04-25T07:57:13;6.50;1.00
8152;DHT22;4117;53.622;9.958;2023-04-25T07:59:42;6.60;1.00
8152;DHT22;4117;53.622;9.958;2023-04-25T08:02:09;6.70;1.00
8152;DHT22;4117;53.622;9.958;2023-04-25T08:04:37;6.70;1.00
8152;DHT22;4117;53.622;9.958;2023-04-25T08:07:04;6.70;1.00
8152;DHT22;4117;53.622;9.958;2023-04-25T08:09:31;6.70;1.00
8152;DHT22;4117;53.622;9.958;2023-04-25T08:12:02;6.80;1.00
8152;DHT22;4117;53.622;9.958;2023-04-25T08:14:31;6.80;1.00
8152;DHT22;4117;53.622;9.958;2023-04-25T08:17:01;6.70;1.00
8152;DHT22;4117;53.622;9.958;2023-04-25T08:19:29;6.50;1.00
8152;DHT22;4117;53.622;9.958;2023-04-25T08:21:56;6.50;1.00
8152;DHT22;4117;53.622;9.958;2023-04-25T08:24:23;6.40;1.00
8152;DHT22;4117;53.622;9.958;2023-04-25T08:26:51;6.30;1.00
8152;DHT22;4117;53.622;9.958;2023-04-25T08:29:19;6.30;1.00
8152;DHT22;4117;53.622;9.958;2023-04-25T08:31:48;6.40;1.00
8152;DHT22;4117;53.622;9.958;2023-04-25T08:34:16;6.60;1.00
8152;DHT22;4117;53.622;9.958;2023-04-25T08:36:43;6.70;1.00
8152;DHT22;4117;53.622;9.958;2023-04-25T08:39:11;6.60;1.00
8152;DHT22;4117;53.622;9.958;2023-04-25T08:41:39;6.60;1.00
8152;DHT22;4117;53.622;9.958;2023-04-25T08:44:10;6.60;1.00
8152;DHT22;4117;53.622;9.958;2023-04-25T08:46:38;6.50;1.00
8152;DHT22;4117;53.622;9.958;2023-04-25T08:49:08;6.60;1.00
8152;DHT22;4117;53.622;9.958;2023-04-25T08:51:40;6.50;1.00
8152;DHT22;4117;53.622;9.958;2023-04-25T08:54:13;6.60;1.00
8152;DHT22;4117;53.622;9.958;2023-04-25T08:56:43;6.80;1.00
8152;DHT22;4117;53.622;9.958;2023-04-25T08:59:11;6.90;1.00
8152;DHT22;4117;53.622;9.958;2023-04-25T09:01:38;7.10;1.00
8152;DHT22;4117;53.622;9.958;2023-04-25T09:04:07;7.20;1.00
8152;DHT22;4117;53.622;9.958;2023-04-25T09:06:34;7.10;1.00
8152;DHT22;4117;53.622;9.958;2023-04-25T09:09:07;7.00;1.00
8152;DHT22;4117;53.622;9.958;2023-04-25T09:11:36;6.90;1.00
8152;DHT22;4117;53.622;9.958;2023-04-25T09:14:14;6.90;1.00
8152;DHT22;4117;53.622;9.958;2023-04-25T09:16:59;6.90;1.00
8152;DHT22;4117;53.622;9.958;2023-04-25T09:19:30;7.00;1.00
8152;DHT22;4117;53.622;9.958;2023-04-25T09:21:58;7.00;1.00
8152;DHT22;4117;53.622;9.958;2023-04-25T09:24:37;7.00;1.00
8152;DHT22;4117;53.622;9.958;2023-04-25T09:27:05;7.00;1.00
8152;DHT22;4117;53.622;9.958;2023-04-25T09:29:37;7.10;1.00
8152;DHT22;4117;53.622;9.958;2023-04-25T09:32:18;7.20;1.00
8152;DHT22;4117;53.622;9.958;2023-04-25T09:34:48;7.10;1.00
8152;DHT22;4117;53.622;9.958;2023-04-25T09:37:18;7.10;1.00
8152;DHT22;4117;53.622;9.958;2023-04-25T09:39:46;6.80;1.00
8152;DHT22;4117;53.622;9.958;2023-04-25T09:42:15;6.40;1.00
8152;DHT22;4117;53.622;9.958;2023-04-25T09:44:44;6.30;1.00
8152;DHT22;4117;53.622;9.958;2023-04-25T09:47:12;6.40;1.00
8152;DHT22;4117;53.622;9.958;2023-04-25T09:49:40;6.50;1.00
8152;DHT22;4117;53.622;9.958;2023-04-25T09:52:14;6.50;1.00
8152;DHT22;4117;53.622;9.958;2023-04-25T09:54:41;6.70;1.00
8152;DHT22;4117;53.622;9.958;2023-04-25T09:57:12;6.80;1.00
8152;DHT22;4117;53.622;9.958;2023-04-25T09:59:46;6.90;1.00
8152;DHT22;4117;53.622;9.958;2023-04-25T10:02:14;7.00;1.00
8152;DHT22;4117;53.622;9.958;2023-04-25T10:04:42;7.10;1.00
8152;DHT22;4117;53.622;9.958;2023-04-25T10:07:14;7.20;1.00
8152;DHT22;4117;53.622;9.958;2023-04-25T10:09:42;7.20;1.00
8152;DHT22;4117;53.622;9.958;2023-04-25T10:12:11;7.20;1.00
8152;DHT22;4117;53.622;9.958;2023-04-25T10:14:38;7.30;1.00
8152;DHT22;4117;53.622;9.958;2023-04-25T10:17:07;7.20;1.00
8152;DHT22;4117;53.622;9.958;2023-04-25T10:19:37;7.30;1.00
8152;DHT22;4117;53.622;9.958;2023-04-25T10:22:08;7.40;1.00
8152;DHT22;4117;53.622;9.958;2023-04-25T10:24:41;7.40;1.00
8152;DHT22;4117;53.622;9.958;2023-04-25T10:27:10;7.30;1.00
8152;DHT22;4117;53.622;9.958;2023-04-25T10:29:41;7.40;1.00
8152;DHT22;4117;53.622;9.958;2023-04-25T10:32:08;7.50;1.00
8152;DHT22;4117;53.622;9.958;2023-04-25T10:34:39;7.60;1.00
8152;DHT22;4117;53.622;9.958;2023-04-25T10:37:12;7.70;1.00
8152;DHT22;4117;53.622;9.958;2023-04-25T10:39:48;7.80;1.00
8152;DHT22;4117;53.622;9.958;2023-04-25T10:42:15;8.00;1.00
8152;DHT22;4117;53.622;9.958;2023-04-25T10:45:01;8.20;1.00
8152;DHT22;4117;53.622;9.958;2023-04-25T10:47:35;8.10;1.00
8152;DHT22;4117;53.622;9.958;2023-04-25T10:50:05;8.10;1.00
8152;DHT22;4117;53.622;9.958;2023-04-25T10:52:33;8.10;1.00
8152;DHT22;4117;53.622;9.958;2023-04-25T10:55:05;8.10;1.00
8152;DHT22;4117;53.622;9.958;2023-04-25T10:57:36;8.00;1.00
8152;DHT22;4117;53.622;9.958;2023-04-25T11:00:14;8.00;1.00
8152;DHT22;4117;53.622;9.958;2023-04-25T11:02:43;8.10;1.00
8152;DHT22;4117;53.622;9.958;2023-04-25T11:05:18;8.10;1.00
8152;DHT22;4117;53.622;9.958;2023-04-25T11:07:50;8.20;1.00
8152;DHT22;4117;53.622;9.958;2023-04-25T11:10:26;8.00;1.00
8152;DHT22;4117;53.622;9.958;2023-04-25T11:12:53;7.80;1.00
8152;DHT22;4117;53.622;9.958;2023-04-25T11:15:20;7.70;1.00
8152;DHT22;4117;53.622;9.958;2023-04-25T11:17:47;7.50;1.00
8152;DHT22;4117;53.622;9.958;2023-04-25T11:20:14;7.30;1.00
8152;DHT22;4117;53.622;9.958;2023-04-25T11:22:41;7.30;1.00
8152;DHT22;4117;53.622;9.958;2023-04-25T11:25:11;7.40;1.00
8152;DHT22;4117;53.622;9.958;2023-04-25T11:27:49;7.50;1.00
8152;DHT22;4117;53.622;9.958;2023-04-25T11:30:17;7.70;1.00
8152;DHT22;4117;53.622;9.958;2023-04-25T11:32:49;7.80;1.00
8152;DHT22;4117;53.622;9.958;2023-04-25T11:35:22;7.90;1.00
8152;DHT22;4117;53.622;9.958;2023-04-25T11:37:51;7.80;1.00
8152;DHT22;4117;53.622;9.958;2023-04-25T11:40:18;7.80;1.00
8152;DHT22;4117;53.622;9.958;2023-04-25T11:42:48;7.90;1.00
8152;DHT22;4117;53.622;9.958;2023-04-25T11:45:15;8.20;1.00
8152;DHT22;4117;53.622;9.958;2023-04-25T11:47:42;8.20;1.00
8152;DHT22;4117;53.622;9.958;2023-04-25T11:50:09;8.00;1.00
8152;DHT22;4117;53.622;9.958;2023-04-25T11:52:41;8.20;1.00
8152;DHT22;4117;53.622;9.958;2023-04-25T11:55:09;8.30;1.00
8152;DHT22;4117;53.622;9.958;2023-04-25T11:57:38;8.50;1.00
8152;DHT22;4117;53.622;9.958;2023-04-25T12:00:09;8.50;1.00
8152;DHT22;4117;53.622;9.958;2023-04-25T12:02:40;8.60;1.00
8152;DHT22;4117;53.622;9.958;2023-04-25T12:05:07;8.50;1.00
8152;DHT22;4117;53.622;9.958;2023-04-25T12:07:35;8.50;1.00
8152;DHT22;4117;53.622;9.958;2023-04-25T12:10:05;8.60;1.00
8152;DHT22;4117;53.622;9.958;2023-04-25T12:12:33;8.90;1.00
8152;DHT22;4117;53.622;9.958;2023-04-25T12:15:10;8.90;1.00
8152;DHT22;4117;53.622;9.958;2023-04-25T12:17:39;8.90;1.00
8152;DHT22;4117;53.622;9.958;2023-04-25T12:20:08;8.70;1.00
8152;DHT22;4117;53.622;9.958;2023-04-25T12:22:35;8.50;1.00
8152;DHT22;4117;53.622;9.958;2023-04-25T12:25:03;8.50;1.00
8152;DHT22;4117;53.622;9.958;2023-04-25T12:27:31;8.70;1.00
8152;DHT22;4117;53.622;9.958;2023-04-25T12:29:59;8.80;1.00
8152;DHT22;4117;53.622;9.958;2023-04-25T12:32:28;9.00;1.00
8152;DHT22;4117;53.622;9.958;2023-04-25T12:34:55;9.00;1.00
8152;DHT22;4117;53.622;9.958;2023-04-25T12:37:22;9.00;1.00
8152;DHT22;4117;53.622;9.958;2023-04-25T12:39:49;9.00;1.00
8152;DHT22;4117;53.622;9.958;2023-04-25T12:42:16;8.90;1.00
8152;DHT22;4117;53.622;9.958;2023-04-25T12:44:43;8.90;1.00
8152;DHT22;4117;53.622;9.958;2023-04-25T12:47:11;8.80;1.00
8152;DHT22;4117;53.622;9.958;2023-04-25T12:49:43;8.70;1.00
8152;DHT22;4117;53.622;9.958;2023-04-25T12:52:10;8.50;1.00
8152;DHT22;4117;53.622;9.958;2023-04-25T12:54:37;8.40;1.00
8152;DHT22;4117;53.622;9.958;2023-04-25T12:57:04;8.40;1.00
8152;DHT22;4117;53.622;9.958;2023-04-25T12:59:31;8.40;1.00
8152;DHT22;4117;53.622;9.958;2023-04-25T13:01:58;8.40;1.00
8152;DHT22;4117;53.622;9.958;2023-04-25T13:04:25;8.50;1.00
8152;DHT22;4117;53.622;9.958;2023-04-25T13:06:53;8.70;1.00
8152;DHT22;4117;53.622;9.958;2023-04-25T13:09:20;8.70;1.00
8152;DHT22;4117;53.622;9.958;2023-04-25T13:11:47;8.80;1.00
8152;DHT22;4117;53.622;9.958;2023-04-25T13:14:16;8.70;1.00
8152;DHT22;4117;53.622;9.958;2023-04-25T13:16:43;8.20;1.00
8152;DHT22;4117;53.622;9.958;2023-04-25T13:19:10;7.80;1.00
8152;DHT22;4117;53.622;9.958;2023-04-25T13:21:38;7.80;1.00
8152;DHT22;4117;53.622;9.958;2023-04-25T13:24:06;7.70;1.00
8152;DHT22;4117;53.622;9.958;2023-04-25T13:26:33;7.70;1.00
8152;DHT22;4117;53.622;9.958;2023-04-25T13:29:01;7.70;1.00
8152;DHT22;4117;53.622;9.958;2023-04-25T13:31:29;7.80;1.00
8152;DHT22;4117;53.622;9.958;2023-04-25T13:33:56;7.90;1.00
8152;DHT22;4117;53.622;9.958;2023-04-25T13:36:24;8.10;1.00
8152;DHT22;4117;53.622;9.958;2023-04-25T13:38:51;8.30;1.00
8152;DHT22;4117;53.622;9.958;2023-04-25T13:41:19;8.20;1.00
8152;DHT22;4117;53.622;9.958;2023-04-25T13:43:46;8.30;1.00
8152;DHT22;4117;53.622;9.958;2023-04-25T13:46:14;7.80;1.00
8152;DHT22;4117;53.622;9.958;2023-04-25T13:48:42;7.50;1.00
8152;DHT22;4117;53.622;9.958;2023-04-25T13:51:13;7.40;1.00
8152;DHT22;4117;53.622;9.958;2023-04-25T13:53:41;7.20;1.00
8152;DHT22;4117;53.622;9.958;2023-04-25T13:56:08;7.20;1.00
8152;DHT22;4117;53.622;9.958;2023-04-25T13:58:36;7.30;1.00
8152;DHT22;4117;53.622;9.958;2023-04-25T14:01:03;7.40;1.00
8152;DHT22;4117;53.622;9.958;2023-04-25T14:03:30;7.40;1.00
8152;DHT22;4117;53.622;9.958;2023-04-25T14:05:57;7.40;1.00
8152;DHT22;4117;53.622;9.958;2023-04-25T14:08:24;7.60;1.00
8152;DHT22;4117;53.622;9.958;2023-04-25T14:10:51;7.90;1.00
8152;DHT22;4117;53.622;9.958;2023-04-25T14:13:18;8.20;1.00
8152;DHT22;4117;53.622;9.958;2023-04-25T14:15:46;8.40;1.00
8152;DHT22;4117;53.622;9.958;2023-04-25T14:18:13;8.70;1.00
8152;DHT22;4117;53.622;9.958;2023-04-25T14:20:40;8.80;1.00
8152;DHT22;4117;53.622;9.958;2023-04-25T14:23:07;8.90;1.00
8152;DHT22;4117;53.622;9.958;2023-04-25T14:25:34;9.00;1.00
8152;DHT22;4117;53.622;9.958;2023-04-25T14:28:02;9.00;1.00
8152;DHT22;4117;53.622;9.958;2023-04-25T14:30:29;9.20;1.00
8152;DHT22;4117;53.622;9.958;2023-04-25T14:32:57;9.10;1.00
8152;DHT22;4117;53.622;9.958;2023-04-25T14:35:25;9.20;1.00
8152;DHT22;4117;53.622;9.958;2023-04-25T14:37:53;9.10;1.00
8152;DHT22;4117;53.622;9.958;2023-04-25T14:40:20;8.90;1.00
8152;DHT22;4117;53.622;9.958;2023-04-25T14:42:48;9.00;1.00
8152;DHT22;4117;53.622;9.958;2023-04-25T14:45:15;9.40;1.00
8152;DHT22;4117;53.622;9.958;2023-04-25T14:47:42;9.50;1.00
8152;DHT22;4117;53.622;9.958;2023-04-25T14:50:11;9.80;1.00
8152;DHT22;4117;53.622;9.958;2023-04-25T14:52:38;9.90;1.00
8152;DHT22;4117;53.622;9.958;2023-04-25T14:55:05;10.00;1.00
8152;DHT22;4117;53.622;9.958;2023-04-25T14:57:33;10.00;1.00
8152;DHT22;4117;53.622;9.958;2023-04-25T15:00:01;9.70;1.00
8152;DHT22;4117;53.622;9.958;2023-04-25T15:02:34;9.40;1.00
8152;DHT22;4117;53.622;9.958;2023-04-25T15:05:01;8.90;1.00
8152;DHT22;4117;53.622;9.958;2023-04-25T15:07:30;8.70;1.00
8152;DHT22;4117;53.622;9.958;2023-04-25T15:09:57;8.70;1.00
8152;DHT22;4117;53.622;9.958;2023-04-25T15:12:24;9.00;1.00
8152;DHT22;4117;53.622;9.958;2023-04-25T15:14:53;8.90;1.00
8152;DHT22;4117;53.622;9.958;2023-04-25T15:17:21;8.60;1.00
8152;DHT22;4117;53.622;9.958;2023-04-25T15:19:48;8.70;1.00
8152;DHT22;4117;53.622;9.958;2023-04-25T15:22:15;9.00;1.00
8152;DHT22;4117;53.622;9.958;2023-04-25T15:24:43;9.30;1.00
8152;DHT22;4117;53.622;9.958;2023-04-25T15:27:10;9.40;1.00
8152;DHT22;4117;53.622;9.958;2023-04-25T15:29:37;9.20;1.00
8152;DHT22;4117;53.622;9.958;2023-04-25T15:32:05;9.00;1.00
8152;DHT22;4117;53.622;9.958;2023-04-25T15:34:32;8.80;1.00
8152;DHT22;4117;53.622;9.958;2023-04-25T15:36:59;9.00;1.00
8152;DHT22;4117;53.622;9.958;2023-04-25T15:39:26;9.20;1.00
8152;DHT22;4117;53.622;9.958;2023-04-25T15:41:54;9.40;1.00
8152;DHT22;4117;53.622;9.958;2023-04-25T15:44:22;9.40;1.00
8152;DHT22;4117;53.622;9.958;2023-04-25T15:46:49;9.20;1.00
8152;DHT22;4117;53.622;9.958;2023-04-25T15:49:16;8.90;1.00
8152;DHT22;4117;53.622;9.958;2023-04-25T15:51:44;8.70;1.00
8152;DHT22;4117;53.622;9.958;2023-04-25T15:54:11;8.80;1.00
8152;DHT22;4117;53.622;9.958;2023-04-25T15:56:38;9.10;1.00
8152;DHT22;4117;53.622;9.958;2023-04-25T15:59:06;9.10;1.00
8152;DHT22;4117;53.622;9.958;2023-04-25T16:01:33;9.20;1.00
8152;DHT22;4117;53.622;9.958;2023-04-25T16:04:00;9.30;1.00
8152;DHT22;4117;53.622;9.958;2023-04-25T16:06:27;9.30;1.00
8152;DHT22;4117;53.622;9.958;2023-04-25T16:08:54;9.20;1.00
8152;DHT22;4117;53.622;9.958;2023-04-25T16:11:21;9.10;1.00
8152;DHT22;4117;53.622;9.958;2023-04-25T16:13:48;9.10;1.00
8152;DHT22;4117;53.622;9.958;2023-04-25T16:16:17;9.30;1.00
8152;DHT22;4117;53.622;9.958;2023-04-25T16:18:44;9.30;1.00
8152;DHT22;4117;53.622;9.958;2023-04-25T16:21:10;9.50;1.00
8152;DHT22;4117;53.622;9.958;2023-04-25T16:23:41;9.40;1.00
8152;DHT22;4117;53.622;9.958;2023-04-25T16:26:08;9.40;1.00
8152;DHT22;4117;53.622;9.958;2023-04-25T16:28:34;9.40;1.00
8152;DHT22;4117;53.622;9.958;2023-04-25T16:31:01;9.40;1.00
8152;DHT22;4117;53.622;9.958;2023-04-25T16:33:30;9.20;1.00
8152;DHT22;4117;53.622;9.958;2023-04-25T16:35:57;9.20;1.00
8152;DHT22;4117;53.622;9.958;2023-04-25T16:38:23;9.20;1.00
8152;DHT22;4117;53.622;9.958;2023-04-25T16:40:50;9.30;1.00